createdAt,value
2018-02-01T00:00:11.427Z,10.40
2018-02-01T00:02:38.994Z,10.40
2018-02-01T00:05:06.524Z,10.40
2018-02-01T00:07:34.157Z,10.40
2018-02-01T00:10:01.716Z,10.40
2018-02-01T00:12:29.345Z,10.40
2018-02-01T00:14:56.870Z,10.40
2018-02-01T00:17:24.479Z,10.40
2018-02-01T00:19:51.999Z,10.40
2018-02-01T00:22:19.910Z,10.40
2018-02-01T00:24:48.224Z,10.40
2018-02-01T00:27:15.800Z,10.30
2018-02-01T00:29:43.389Z,10.30
2018-02-01T00:32:11.042Z,10.30
2018-02-01T00:34:38.597Z,10.40
2018-02-01T00:37:06.163Z,10.30
2018-02-01T00:39:33.718Z,10.30
2018-02-01T00:42:01.320Z,10.30
2018-02-01T00:44:28.910Z,10.30
2018-02-01T00:46:56.502Z,10.30
2018-02-01T00:49:24.081Z,10.30
2018-02-01T00:51:51.643Z,10.20
2018-02-01T00:54:19.198Z,10.20
2018-02-01T00:56:46.716Z,10.20
2018-02-01T00:59:14.276Z,10.20
2018-02-01T01:01:41.862Z,10.20
2018-02-01T01:04:09.430Z,10.20
2018-02-01T01:06:37.001Z,10.10
2018-02-01T01:09:04.525Z,10.20
2018-02-01T01:11:32.121Z,10.20
2018-02-01T01:13:59.910Z,10.20
2018-02-01T01:16:27.481Z,10.20
2018-02-01T01:18:55.773Z,10.10
2018-02-01T01:21:23.339Z,10.10
2018-02-01T01:23:50.852Z,10.10
2018-02-01T01:26:18.494Z,10.10
2018-02-01T01:28:46.050Z,10.20
2018-02-01T01:31:13.614Z,10.20
2018-02-01T01:33:41.928Z,10.10
2018-02-01T01:36:09.459Z,10.10
2018-02-01T01:38:37.021Z,10.10
2018-02-01T01:41:04.554Z,10.10
2018-02-01T01:43:32.132Z,10.10
2018-02-01T01:46:10.613Z,10.10
2018-02-01T01:48:38.146Z,10.10
2018-02-01T01:51:05.715Z,10.10
2018-02-01T01:53:33.322Z,10.00
2018-02-01T01:56:00.888Z,10.00
2018-02-01T01:58:28.461Z,10.00
2018-02-01T02:00:55.984Z,9.90
2018-02-01T02:03:23.566Z,9.90
2018-02-01T02:05:51.110Z,9.60
2018-02-01T02:08:18.635Z,9.40
2018-02-01T02:10:46.208Z,9.00
2018-02-01T02:13:13.806Z,8.80
2018-02-01T02:15:41.367Z,8.60
2018-02-01T02:18:08.941Z,8.50
2018-02-01T02:20:36.506Z,8.40
2018-02-01T02:23:04.029Z,8.30
2018-02-01T02:25:31.555Z,8.20
2018-02-01T02:27:59.119Z,8.20
2018-02-01T02:30:26.707Z,8.20
2018-02-01T02:32:54.237Z,8.20
2018-02-01T02:35:21.751Z,8.20
2018-02-01T02:37:49.300Z,8.10
2018-02-01T02:40:16.816Z,8.00
2018-02-01T02:42:45.157Z,7.90
2018-02-01T02:45:12.721Z,7.90
2018-02-01T02:47:40.325Z,7.90
2018-02-01T02:50:08.590Z,7.90
2018-02-01T02:52:36.149Z,7.80
2018-02-01T02:55:04.474Z,7.80
2018-02-01T02:57:32.024Z,7.80
2018-02-01T02:59:59.601Z,7.80
2018-02-01T03:02:27.112Z,7.80
2018-02-01T03:04:54.690Z,7.80
2018-02-01T03:07:22.254Z,7.80
2018-02-01T03:09:49.790Z,7.90
2018-02-01T03:12:17.324Z,7.80
2018-02-01T03:14:45.659Z,7.90
2018-02-01T03:17:13.187Z,7.80
2018-02-01T03:19:40.745Z,7.80
2018-02-01T03:22:08.268Z,7.80
2018-02-01T03:24:35.841Z,7.90
2018-02-01T03:27:04.145Z,7.80
2018-02-01T03:29:31.665Z,7.80
2018-02-01T03:31:59.252Z,7.90
2018-02-01T03:34:26.792Z,7.80
2018-02-01T03:36:54.308Z,7.80
2018-02-01T03:39:21.870Z,7.80
2018-02-01T03:41:49.439Z,7.80
2018-02-01T03:44:17.005Z,7.80
2018-02-01T03:46:44.525Z,7.70
2018-02-01T03:49:12.078Z,7.70
2018-02-01T03:51:39.605Z,7.70
2018-02-01T03:54:07.172Z,7.70
2018-02-01T03:56:35.504Z,7.80
2018-02-01T03:59:03.090Z,7.80
2018-02-01T04:01:30.661Z,7.80
2018-02-01T04:03:58.222Z,7.80
2018-02-01T04:06:25.824Z,7.80
2018-02-01T04:08:53.377Z,7.80
2018-02-01T04:11:20.917Z,7.80
2018-02-01T04:13:48.530Z,7.70
2018-02-01T04:16:16.117Z,7.80
2018-02-01T04:18:43.660Z,7.70
2018-02-01T04:21:11.189Z,7.80
2018-02-01T04:23:38.709Z,7.80
2018-02-01T04:26:06.273Z,7.80
2018-02-01T04:28:34.569Z,7.90
2018-02-01T04:31:02.144Z,7.90
2018-02-01T04:33:29.666Z,8.00
2018-02-01T04:35:57.232Z,7.80
2018-02-01T04:38:24.786Z,7.90
2018-02-01T04:40:53.093Z,8.00
2018-02-01T04:43:20.709Z,8.00
2018-02-01T04:45:48.291Z,8.00
2018-02-01T04:48:15.847Z,8.00
2018-02-01T04:50:44.127Z,8.10
2018-02-01T04:53:11.692Z,8.10
2018-02-01T04:55:39.985Z,8.00
2018-02-01T04:58:07.522Z,8.00
2018-02-01T05:00:35.840Z,8.00
2018-02-01T05:03:03.669Z,8.00
2018-02-01T05:05:31.994Z,8.00
2018-02-01T05:07:59.565Z,8.00
2018-02-01T05:10:27.125Z,8.10
2018-02-01T05:12:54.721Z,8.00
2018-02-01T05:15:23.014Z,8.00
2018-02-01T05:17:50.616Z,7.90
2018-02-01T05:20:18.156Z,8.00
2018-02-01T05:22:45.720Z,8.00
2018-02-01T05:25:13.277Z,8.00
2018-02-01T05:27:40.860Z,8.00
2018-02-01T05:30:08.431Z,7.90
2018-02-01T05:32:36.086Z,7.90
2018-02-01T05:35:03.681Z,8.00
2018-02-01T05:37:32.027Z,8.00
2018-02-01T05:39:59.609Z,8.00
2018-02-01T05:42:27.155Z,8.00
2018-02-01T05:44:54.793Z,8.00
2018-02-01T05:47:22.359Z,8.10
2018-02-01T05:49:49.923Z,8.10
2018-02-01T05:52:17.516Z,8.00
2018-02-01T05:54:45.054Z,7.90
2018-02-01T05:57:12.635Z,7.90
2018-02-01T05:59:40.985Z,7.80
2018-02-01T06:02:08.533Z,7.80
2018-02-01T06:04:36.053Z,7.80
2018-02-01T06:07:03.617Z,7.90
2018-02-01T06:09:31.146Z,7.90
2018-02-01T06:11:58.764Z,7.80
2018-02-01T06:14:26.348Z,7.70
2018-02-01T06:16:53.940Z,7.80
2018-02-01T06:19:21.541Z,7.70
2018-02-01T06:21:49.114Z,7.80
2018-02-01T06:24:16.642Z,7.80
2018-02-01T06:26:44.277Z,7.80
2018-02-01T06:29:12.610Z,7.80
2018-02-01T06:31:40.177Z,7.70
2018-02-01T06:34:07.731Z,7.70
2018-02-01T06:36:35.319Z,7.60
2018-02-01T06:39:02.859Z,7.60
2018-02-01T06:41:30.469Z,7.50
2018-02-01T06:43:58.051Z,7.40
2018-02-01T06:46:25.561Z,7.40
2018-02-01T06:48:53.216Z,7.40
2018-02-01T06:51:20.798Z,7.30
2018-02-01T06:53:48.409Z,7.20
2018-02-01T06:56:15.933Z,7.30
2018-02-01T06:58:44.281Z,7.30
2018-02-01T07:01:11.805Z,7.30
2018-02-01T07:03:39.382Z,7.30
2018-02-01T07:06:06.902Z,7.30
2018-02-01T07:08:34.462Z,7.20
2018-02-01T07:11:02.031Z,7.20
2018-02-01T07:13:29.626Z,7.20
2018-02-01T07:15:57.347Z,7.10
2018-02-01T07:18:24.966Z,7.10
2018-02-01T07:20:52.506Z,7.10
2018-02-01T07:23:20.123Z,7.00
2018-02-01T07:25:50.205Z,7.00
2018-02-01T07:28:17.843Z,7.00
2018-02-01T07:30:45.357Z,7.00
2018-02-01T07:33:12.904Z,6.90
2018-02-01T07:35:40.515Z,6.90
2018-02-01T07:38:08.122Z,6.90
2018-02-01T07:40:35.674Z,6.80
2018-02-01T07:43:04.013Z,6.80
2018-02-01T07:45:32.392Z,6.80
2018-02-01T07:48:00.012Z,6.80
2018-02-01T07:53:09.446Z,6.70
2018-02-01T07:55:36.973Z,6.80
2018-02-01T07:58:04.589Z,6.80
2018-02-01T08:00:32.252Z,6.90
2018-02-01T08:03:00.551Z,7.10
2018-02-01T08:05:28.128Z,7.10
2018-02-01T08:07:55.952Z,7.10
2018-02-01T08:10:23.563Z,7.00
2018-02-01T08:12:51.153Z,7.00
2018-02-01T08:15:18.779Z,7.00
2018-02-01T08:17:46.550Z,7.00
2018-02-01T08:20:14.211Z,7.00
2018-02-01T08:22:41.754Z,7.00
2018-02-01T08:25:09.301Z,7.00
2018-02-01T08:27:36.870Z,7.00
2018-02-01T08:30:04.458Z,7.10
2018-02-01T08:32:32.058Z,7.00
2018-02-01T08:35:00.803Z,6.90
2018-02-01T08:37:28.446Z,7.00
2018-02-01T08:39:55.973Z,7.20
2018-02-01T08:42:23.586Z,7.10
2018-02-01T08:44:51.197Z,7.00
2018-02-01T08:47:18.759Z,7.10
2018-02-01T08:49:46.313Z,7.10
2018-02-01T08:52:13.904Z,7.20
2018-02-01T08:54:42.428Z,7.20
2018-02-01T08:57:10.039Z,7.10
2018-02-01T08:59:37.710Z,7.20
2018-02-01T09:02:05.327Z,7.20
2018-02-01T09:04:32.950Z,7.20
2018-02-01T09:07:00.757Z,7.30
2018-02-01T09:09:29.114Z,7.30
2018-02-01T09:11:56.746Z,7.30
2018-02-01T09:14:24.371Z,7.40
2018-02-01T09:16:52.001Z,7.50
2018-02-01T09:19:19.594Z,7.50
2018-02-01T09:21:47.193Z,7.50
2018-02-01T09:24:15.397Z,7.50
2018-02-01T09:26:43.038Z,7.50
2018-02-01T09:29:11.112Z,7.40
2018-02-01T09:31:38.857Z,7.30
2018-02-01T09:34:06.432Z,7.50
2018-02-01T09:36:34.054Z,7.70
2018-02-01T09:39:01.621Z,7.80
2018-02-01T09:41:29.418Z,7.80
2018-02-01T09:43:56.935Z,7.80
2018-02-01T09:46:24.524Z,7.80
2018-02-01T09:48:52.157Z,7.90
2018-02-01T09:51:19.802Z,7.90
2018-02-01T09:53:48.319Z,7.90
2018-02-01T09:56:15.917Z,7.90
2018-02-01T09:58:43.652Z,8.00
2018-02-01T10:01:11.698Z,8.00
2018-02-01T10:03:39.280Z,8.10
2018-02-01T10:06:06.845Z,8.00
2018-02-01T10:08:34.546Z,8.10
2018-02-01T10:11:02.149Z,8.10
2018-02-01T10:13:29.729Z,8.10
2018-02-01T10:15:57.324Z,8.10
2018-02-01T10:18:24.912Z,8.10
2018-02-01T10:20:53.234Z,8.10
2018-02-01T10:23:21.714Z,8.10
2018-02-01T10:25:49.282Z,8.00
2018-02-01T10:28:17.592Z,7.90
2018-02-01T10:30:45.209Z,7.90
2018-02-01T10:33:12.773Z,7.80
2018-02-01T10:35:40.315Z,7.70
2018-02-01T10:38:07.916Z,7.60
2018-02-01T10:40:36.274Z,7.70
2018-02-01T10:43:03.833Z,7.70
2018-02-01T10:45:31.394Z,7.70
2018-02-01T10:47:58.982Z,7.60
2018-02-01T10:50:27.441Z,7.60
2018-02-01T10:52:55.024Z,7.60
2018-02-01T10:55:22.679Z,7.70
2018-02-01T10:57:50.514Z,7.70
2018-02-01T11:00:18.048Z,7.80
2018-02-01T11:02:45.640Z,7.70
2018-02-01T11:05:13.188Z,7.70
2018-02-01T11:07:40.762Z,7.70
2018-02-01T11:10:08.381Z,7.70
2018-02-01T11:12:36.000Z,7.60
2018-02-01T11:15:03.632Z,7.60
2018-02-01T11:17:31.190Z,7.60
2018-02-01T11:19:58.772Z,7.70
2018-02-01T11:22:26.374Z,7.80
2018-02-01T11:24:53.964Z,7.90
2018-02-01T11:27:21.567Z,7.90
2018-02-01T11:29:49.191Z,7.90
2018-02-01T11:32:16.861Z,7.80
2018-02-01T11:34:44.440Z,7.70
2018-02-01T11:37:12.030Z,7.60
2018-02-01T11:39:39.684Z,7.50
2018-02-01T11:42:07.221Z,7.50
2018-02-01T11:44:34.844Z,7.40
2018-02-01T11:47:02.450Z,7.40
2018-02-01T11:49:30.063Z,7.40
2018-02-01T11:51:58.400Z,7.40
2018-02-01T11:54:25.972Z,7.40
2018-02-01T11:56:53.644Z,7.50
2018-02-01T11:59:22.866Z,7.60
2018-02-01T12:01:50.447Z,7.60
2018-02-01T12:04:18.111Z,7.70
2018-02-01T12:06:45.686Z,7.70
2018-02-01T12:09:13.241Z,7.60
2018-02-01T12:11:40.862Z,7.70
2018-02-01T12:14:08.757Z,7.70
2018-02-01T12:16:36.340Z,7.80
2018-02-01T12:19:04.108Z,7.80
2018-02-01T12:21:31.655Z,7.70
2018-02-01T12:23:59.223Z,7.90
2018-02-01T12:26:29.842Z,8.00
2018-02-01T12:28:57.578Z,7.90
2018-02-01T12:31:25.159Z,8.00
2018-02-01T12:33:52.732Z,8.10
2018-02-01T12:36:20.255Z,8.20
2018-02-01T12:38:47.825Z,8.20
2018-02-01T12:41:15.397Z,8.20
2018-02-01T12:43:42.964Z,8.20
2018-02-01T12:46:10.506Z,8.20
2018-02-01T12:48:38.204Z,8.30
2018-02-01T12:51:05.738Z,8.30
2018-02-01T12:53:33.840Z,8.30
2018-02-01T12:56:01.371Z,8.40
2018-02-01T12:58:28.972Z,8.40
2018-02-01T13:00:57.313Z,8.40
2018-02-01T13:03:24.864Z,8.40
2018-02-01T13:05:52.476Z,8.50
2018-02-01T13:08:20.056Z,8.40
2018-02-01T13:10:47.693Z,8.50
2018-02-01T13:13:15.304Z,8.50
2018-02-01T13:15:42.861Z,8.60
2018-02-01T13:18:10.423Z,8.60
2018-02-01T13:20:37.964Z,8.50
2018-02-01T13:23:05.610Z,8.60
2018-02-01T13:25:33.220Z,8.60
2018-02-01T13:28:00.832Z,8.60
2018-02-01T13:30:28.411Z,8.60
2018-02-01T13:32:55.966Z,8.60
2018-02-01T13:35:23.517Z,8.60
2018-02-01T13:37:51.500Z,8.60
2018-02-01T13:40:19.071Z,8.50
2018-02-01T13:42:48.170Z,8.50
2018-02-01T13:45:15.801Z,8.40
2018-02-01T13:47:43.530Z,8.40
2018-02-01T13:50:11.436Z,8.40
2018-02-01T13:52:39.054Z,8.40
2018-02-01T13:55:06.722Z,8.40
2018-02-01T13:57:34.276Z,8.50
2018-02-01T14:00:01.864Z,8.50
2018-02-01T14:02:30.204Z,8.50
2018-02-01T14:04:57.769Z,8.60
2018-02-01T14:07:25.380Z,8.60
2018-02-01T14:09:53.033Z,8.50
2018-02-01T14:12:20.603Z,8.60
2018-02-01T14:14:48.412Z,8.50
2018-02-01T14:17:15.993Z,8.40
2018-02-01T14:19:43.628Z,8.50
2018-02-01T14:22:11.212Z,8.60
2018-02-01T14:24:38.785Z,8.60
2018-02-01T14:27:06.357Z,8.40
2018-02-01T14:29:35.481Z,8.50
2018-02-01T14:32:03.204Z,8.50
2018-02-01T14:34:30.825Z,8.60
2018-02-01T14:36:58.396Z,8.60
2018-02-01T14:39:25.941Z,8.50
2018-02-01T14:41:53.512Z,8.60
2018-02-01T14:44:21.085Z,8.60
2018-02-01T14:46:48.701Z,8.60
2018-02-01T14:49:16.512Z,8.70
2018-02-01T14:51:44.184Z,8.70
2018-02-01T14:54:11.838Z,8.70
2018-02-01T14:56:39.461Z,8.70
2018-02-01T14:59:07.094Z,8.70
2018-02-01T15:01:34.668Z,8.70
2018-02-01T15:04:02.318Z,8.70
2018-02-01T15:06:29.956Z,8.60
2018-02-01T15:08:57.723Z,8.40
2018-02-01T15:11:25.300Z,8.40
2018-02-01T15:13:52.898Z,8.60
2018-02-01T15:16:20.471Z,8.60
2018-02-01T15:18:48.912Z,8.70
2018-02-01T15:21:16.524Z,8.70
2018-02-01T15:23:44.080Z,8.60
2018-02-01T15:26:11.702Z,8.60
2018-02-01T15:28:39.366Z,8.70
2018-02-01T15:31:06.939Z,8.60
2018-02-01T15:33:34.565Z,8.60
2018-02-01T15:36:02.193Z,8.60
2018-02-01T15:38:29.969Z,8.50
2018-02-01T15:40:57.637Z,8.50
2018-02-01T15:43:25.173Z,8.50
2018-02-01T15:45:52.777Z,8.50
2018-02-01T15:48:20.370Z,8.50
2018-02-01T15:50:47.995Z,8.50
2018-02-01T15:53:15.631Z,8.50
2018-02-01T15:55:43.180Z,8.50
2018-02-01T15:58:10.737Z,8.40
2018-02-01T16:00:38.282Z,8.40
2018-02-01T16:03:05.856Z,8.40
2018-02-01T16:05:33.441Z,8.40
2018-02-01T16:08:01.023Z,8.40
2018-02-01T16:10:29.417Z,8.20
2018-02-01T16:12:57.001Z,8.30
2018-02-01T16:15:24.565Z,8.30
2018-02-01T16:17:52.170Z,8.40
2018-02-01T16:20:19.799Z,8.40
2018-02-01T16:22:48.201Z,8.40
2018-02-01T16:25:15.744Z,8.50
2018-02-01T16:27:43.436Z,8.60
2018-02-01T16:30:11.003Z,8.50
2018-02-01T16:32:38.632Z,8.50
2018-02-01T16:35:06.243Z,8.50
2018-02-01T16:37:33.844Z,8.60
2018-02-01T16:40:01.396Z,8.60
2018-02-01T16:42:29.020Z,8.60
2018-02-01T16:44:56.618Z,8.50
2018-02-01T16:47:24.165Z,8.40
2018-02-01T16:49:51.726Z,8.30
2018-02-01T16:52:19.290Z,8.30
2018-02-01T16:54:46.857Z,8.30
2018-02-01T16:57:14.378Z,8.40
2018-02-01T16:59:41.965Z,8.40
2018-02-01T17:02:09.576Z,8.40
2018-02-01T17:04:37.246Z,8.40
2018-02-01T17:07:05.580Z,8.40
2018-02-01T17:09:33.186Z,8.40
2018-02-01T17:12:00.813Z,8.40
2018-02-01T17:14:28.452Z,8.40
2018-02-01T17:16:56.097Z,8.30
2018-02-01T17:19:23.687Z,8.40
2018-02-01T17:21:51.280Z,8.20
2018-02-01T17:24:18.821Z,8.30
2018-02-01T17:26:46.469Z,8.40
2018-02-01T17:29:14.044Z,8.30
2018-02-01T17:31:41.643Z,8.20
2018-02-01T17:34:10.004Z,8.20
2018-02-01T17:36:38.390Z,8.30
2018-02-01T17:39:06.720Z,8.30
2018-02-01T17:41:34.331Z,8.30
2018-02-01T17:44:01.901Z,8.40
2018-02-01T17:46:29.484Z,8.40
2018-02-01T17:48:57.071Z,8.40
2018-02-01T17:54:06.565Z,8.40
2018-02-01T17:56:34.865Z,8.20
2018-02-01T17:59:02.410Z,8.20
2018-02-01T18:01:30.737Z,8.20
2018-02-01T18:03:58.341Z,8.20
2018-02-01T18:06:26.756Z,8.20
2018-02-01T18:08:54.358Z,8.20
2018-02-01T18:11:22.008Z,8.10
2018-02-01T18:13:49.615Z,8.10
2018-02-01T18:16:17.923Z,8.10
2018-02-01T18:18:45.580Z,8.10
2018-02-01T18:21:13.154Z,8.10
2018-02-01T18:23:40.738Z,8.20
2018-02-01T18:26:08.377Z,8.20
2018-02-01T18:28:36.033Z,8.20
2018-02-01T18:31:03.629Z,8.20
2018-02-01T18:33:31.765Z,8.20
2018-02-01T18:35:59.346Z,8.30
2018-02-01T18:38:26.965Z,8.30
2018-02-01T18:40:54.559Z,8.30
2018-02-01T18:43:22.173Z,8.30
2018-02-01T18:45:50.484Z,8.30
2018-02-01T18:48:18.027Z,8.30
2018-02-01T18:50:45.584Z,8.20
2018-02-01T18:53:13.125Z,8.30
2018-02-01T18:55:40.831Z,8.30
2018-02-01T18:58:08.518Z,8.30
2018-02-01T19:00:36.232Z,8.30
2018-02-01T19:03:03.824Z,8.30
2018-02-01T19:05:31.362Z,8.20
2018-02-01T19:07:59.007Z,8.10
2018-02-01T19:10:26.563Z,8.10
2018-02-01T19:12:54.135Z,8.10
2018-02-01T19:15:21.713Z,8.10
2018-02-01T19:17:49.378Z,8.00
2018-02-01T19:20:16.905Z,8.00
2018-02-01T19:22:44.469Z,8.00
2018-02-01T19:25:12.025Z,7.90
2018-02-01T19:27:40.414Z,7.90
2018-02-01T19:30:07.984Z,7.90
2018-02-01T19:32:35.600Z,8.00
2018-02-01T19:35:03.957Z,8.00
2018-02-01T19:37:31.649Z,7.90
2018-02-01T19:39:59.242Z,8.00
2018-02-01T19:42:26.812Z,8.10
2018-02-01T19:44:54.400Z,8.10
2018-02-01T19:47:21.991Z,8.00
2018-02-01T19:49:50.412Z,8.00
2018-02-01T19:52:18.168Z,7.90
2018-02-01T19:54:45.752Z,8.00
2018-02-01T19:57:13.334Z,8.10
2018-02-01T19:59:40.920Z,8.10
2018-02-01T20:02:08.466Z,8.20
2018-02-01T20:04:36.089Z,8.20
2018-02-01T20:07:03.927Z,8.20
2018-02-01T20:09:31.569Z,8.00
2018-02-01T20:11:59.187Z,7.90
2018-02-01T20:14:26.813Z,7.80
2018-02-01T20:16:54.353Z,7.80
2018-02-01T20:19:21.996Z,7.80
2018-02-01T20:21:49.609Z,7.90
2018-02-01T20:24:17.454Z,7.80
2018-02-01T20:26:46.173Z,7.80
2018-02-01T20:29:13.759Z,7.70
2018-02-01T20:31:41.457Z,7.70
2018-02-01T20:34:09.906Z,7.70
2018-02-01T20:36:37.494Z,7.60
2018-02-01T20:39:05.897Z,7.60
2018-02-01T20:41:33.481Z,7.60
2018-02-01T20:44:01.094Z,7.60
2018-02-01T20:46:29.450Z,7.50
2018-02-01T20:48:57.136Z,7.50
2018-02-01T20:51:25.048Z,7.50
2018-02-01T20:53:52.600Z,7.50
2018-02-01T20:56:20.208Z,7.50
2018-02-01T20:58:47.821Z,7.50
2018-02-01T21:01:15.424Z,7.60
2018-02-01T21:03:43.050Z,7.60
2018-02-01T21:06:10.574Z,7.60
2018-02-01T21:08:38.138Z,7.70
2018-02-01T21:11:06.504Z,7.80
2018-02-01T21:13:35.212Z,7.70
2018-02-01T21:16:02.825Z,7.70
2018-02-01T21:18:30.452Z,7.80
2018-02-01T21:20:58.349Z,7.80
2018-02-01T21:23:25.921Z,7.80
2018-02-01T21:25:53.559Z,7.80
2018-02-01T21:28:21.141Z,7.80
2018-02-01T21:30:48.707Z,7.70
2018-02-01T21:33:16.339Z,7.60
2018-02-01T21:35:44.032Z,7.40
2018-02-01T21:38:11.665Z,7.40
2018-02-01T21:40:39.235Z,7.40
2018-02-01T21:43:06.806Z,7.40
2018-02-01T21:45:34.347Z,7.60
2018-02-01T21:48:01.893Z,7.60
2018-02-01T21:50:29.509Z,7.60
2018-02-01T21:52:57.796Z,7.70
2018-02-01T21:55:25.391Z,7.70
2018-02-01T21:57:53.030Z,7.60
2018-02-01T22:00:20.629Z,7.60
2018-02-01T22:02:48.176Z,7.60
2018-02-01T22:05:15.834Z,7.60
2018-02-01T22:07:43.424Z,7.50
2018-02-01T22:10:11.022Z,7.40
2018-02-01T22:12:39.406Z,7.40
2018-02-01T22:15:06.970Z,7.40
2018-02-01T22:17:34.522Z,7.50
2018-02-01T22:20:02.073Z,7.70
2018-02-01T22:22:30.447Z,7.60
2018-02-01T22:24:58.810Z,7.70
2018-02-01T22:27:27.149Z,7.70
2018-02-01T22:29:55.016Z,7.70
2018-02-01T22:32:22.680Z,7.60
2018-02-01T22:34:50.248Z,7.70
2018-02-01T22:37:17.813Z,7.80
2018-02-01T22:39:45.426Z,7.70
2018-02-01T22:42:13.033Z,7.80
2018-02-01T22:44:41.313Z,7.90
2018-02-01T22:47:29.349Z,7.90
2018-02-01T22:49:57.312Z,8.00
2018-02-01T22:52:24.882Z,7.80
2018-02-01T22:54:52.442Z,7.80
2018-02-01T22:57:20.090Z,7.90
2018-02-01T22:59:47.658Z,7.90
2018-02-01T23:02:15.185Z,7.90
2018-02-01T23:04:42.736Z,8.00
2018-02-01T23:07:10.302Z,7.90
2018-02-01T23:09:37.933Z,7.90
2018-02-01T23:12:06.331Z,7.90
2018-02-01T23:14:34.617Z,8.00
2018-02-01T23:17:02.177Z,7.90
2018-02-01T23:19:29.802Z,8.00
2018-02-01T23:21:57.355Z,8.00
2018-02-01T23:24:24.901Z,7.90
2018-02-01T23:26:52.469Z,7.80
2018-02-01T23:29:20.064Z,7.80
2018-02-01T23:31:48.385Z,7.80
2018-02-01T23:34:15.942Z,7.80
2018-02-01T23:36:43.518Z,7.80
2018-02-01T23:39:11.048Z,7.80
2018-02-01T23:41:38.714Z,7.90
2018-02-01T23:44:06.389Z,7.90
2018-02-01T23:46:33.919Z,7.90
2018-02-01T23:49:01.460Z,7.90
2018-02-01T23:51:29.031Z,7.80
2018-02-01T23:53:56.578Z,7.90
2018-02-01T23:56:24.907Z,7.90
2018-02-01T23:58:52.456Z,7.90
